Little Rock, Arkansas
Current Conditions -  °F | °C
As of 8:53 PM on Friday 19 Dec 2014 (Local Time) from KLIT Reporting Station
Overcast Overcast  
Wind Chill:   Ceiling: 5500
Heat Index:   Visibility: 10mi
Dew Point:   Wind: 8mph
Humidity: 76%   Direction: 50°NE
Pressure: 30.25"   Gusts: NA
Location:  34.75°N, 92.27°W
Report Text: KLIT 200253Z 05007KT 10SM OVC055 06/02 A3025 RMK AO2 SLP247 T00560017 51005
Loading
Personal Weather Stations






























Interactive Weather Map New forecast layout! Learn more

10-Day Weather Forecast

Advertisements
Track Severe Weather on mobile